METAR Analyzer

一覧表示

Hello, Guest. (Login)

RJFF/FUK  -  福岡

観測日時
2021-01-27 00:30 (UTC) (47分前)
気温
12
露点
6
湿数
6
相対湿度
66.7%
QNH
1019hPa
推定現地気圧
1017.9hPa
推定海面気圧
1019.0hPa
体感温度
3.4
(無風時)
14.2
HI
11
気温前日比
+3.5
体感温度前日比
+1.6
HI前日比
+3.5
水平視程
>10000m
鉛直視程
データなし
雲底高度
4000ft AGL
V/I
VMC (VFR)
RVR
No RVR data
卓越風
7kt from 360° (310° ~ 40°)
ガスト
No gust
降水
報告なし
その他の天気
報告なし
少しの雲 @ 2500ft AGL / 散在する雲 @ 3500ft AGL / 隙間のある雲 @ 4000ft AGL

RJFF 270030Z 36007KT 310V040 9999 FEW025 SCT035 BKN040 12/06 Q1019 NOSIG

RJFR/KKJ  -  北九州

観測日時
2021-01-27 00:00 (UTC) (77分前)
気温
11
露点
6
湿数
5
相対湿度
71.2%
QNH
1019hPa
推定現地気圧
1018.3hPa
推定海面気圧
1019.0hPa
体感温度
2.7
(無風時)
13.4
HI
10
気温前日比
+1
体感温度前日比
+3.6
HI前日比
+0.7
水平視程
>10000m
鉛直視程
データなし
雲底高度
4000ft AGL
V/I
VMC (VFR)
RVR
No RVR data
卓越風
6kt from 300°
ガスト
No gust
降水
報告なし
その他の天気
報告なし
少しの雲 @ 2000ft AGL / 散在する雲 @ 3000ft AGL / 隙間のある雲 @ 4000ft AGL

RJFR 270000Z 30006KT 9999 FEW020 SCT030 BKN040 11/06 Q1019

RJFS/HSG  -  佐賀

観測日時
2021-01-27 00:00 (UTC) (77分前)
気温
11
露点
6
湿数
5
相対湿度
71.2%
QNH
1019hPa
推定現地気圧
1018.8hPa
推定海面気圧
1019.0hPa
体感温度
2.1
(無風時)
13.4
HI
10
気温前日比
+3
体感温度前日比
+2
HI前日比
+2.7
水平視程
>10000m
鉛直視程
データなし
雲底高度
No dense clouds
V/I
VMC (VFR)
RVR
No RVR data
卓越風
7kt from 330°
ガスト
No gust
降水
報告なし
その他の天気
報告なし
少しの雲 @ 2500ft AGL / 散在する雲 @ 不明な高さ

RJFS 270000Z 33007KT 9999 FEW025 SCT/// 11/06 Q1019

RJFU/NGS  -  長崎

観測日時
2021-01-27 00:00 (UTC) (77分前)
気温
11
露点
6
湿数
5
相対湿度
71.2%
QNH
1019hPa
推定現地気圧
1018.8hPa
推定海面気圧
1019.0hPa
体感温度
1
(無風時)
13.4
HI
10
気温前日比
+2
体感温度前日比
+3.6
HI前日比
+1.6
水平視程
>10000m
鉛直視程
データなし
雲底高度
No dense clouds
V/I
VMC (VFR)
RVR
No RVR data
卓越風
9kt from 360°
ガスト
No gust
降水
報告なし
その他の天気
報告なし
少しの雲 @ 3000ft AGL

RJFU 270000Z 36009KT 9999 FEW030 11/06 Q1019

RJFE/FUJ  -  福江

観測日時
2021-01-27 00:00 (UTC) (77分前)
気温
11
露点
5
湿数
6
相対湿度
66.5%
QNH
1019hPa
推定現地気圧
1009.7hPa
推定海面気圧
1019.1hPa
体感温度
-0.5
(無風時)
13.4
HI
9.9
気温前日比
-4
体感温度前日比
-4.3
HI前日比
-4.9
水平視程
>10000m
鉛直視程
データなし
雲底高度
No dense clouds
V/I
VMC (VFR)
RVR
No RVR data
卓越風
14kt from 10°
ガスト
No gust
降水
報告なし
その他の天気
報告なし
少しの雲 @ 3000ft AGL / 散在する雲 @ 16000ft AGL

RJFE 270000Z 01014KT 9999 FEW030 SCT160 11/05 Q1019

株式会社マネーパートナーズ 【Manepa Card】

RJDT/TSJ  -  対馬

観測日時
2021-01-27 00:00 (UTC) (77分前)
気温
9
露点
1
湿数
8
相対湿度
57.2%
QNH
1020hPa
推定現地気圧
1012.4hPa
推定海面気圧
1020.1hPa
体感温度
-0.4
(無風時)
11.9
HI
7.4
気温前日比
-1
体感温度前日比
-8.2
HI前日比
-2.2
水平視程
>10000m
鉛直視程
データなし
雲底高度
No dense clouds
V/I
VMC (VFR)
RVR
No RVR data
卓越風
8kt from 330°
ガスト
No gust
降水
報告なし
その他の天気
報告なし
少しの雲 @ 3000ft AGL

RJDT 270000Z 33008KT 9999 FEW030 09/01 Q1020

RJFO/OIT  -  大分

観測日時
2021-01-27 00:00 (UTC) (77分前)
気温
13
露点
5
湿数
8
相対湿度
58.2%
QNH
1018hPa
推定現地気圧
1017.4hPa
推定海面気圧
1018.0hPa
体感温度
3.9
(無風時)
14.9
HI
11.9
気温前日比
+2
体感温度前日比
+4.3
HI前日比
+1.5
水平視程
>10000m
鉛直視程
データなし
雲底高度
4000ft AGL
V/I
VMC (VFR)
RVR
No RVR data
卓越風
9kt from 330°
ガスト
No gust
降水
報告なし
その他の天気
報告なし
少しの雲 @ 2500ft AGL / 隙間のある雲 @ 4000ft AGL

RJFO 270000Z 33009KT 9999 FEW025 BKN040 13/05 Q1018

RJFT/KMJ  -  熊本

観測日時
2021-01-27 00:00 (UTC) (77分前)
気温
10
露点
8
湿数
2
相対湿度
87.4%
QNH
1018hPa
推定現地気圧
994.9hPa
推定海面気圧
1018.3hPa
体感温度
2.8
(無風時)
12.7
HI
9.3
気温前日比
+1
体感温度前日比
-4
HI前日比
+0.9
水平視程
>10000m
鉛直視程
データなし
雲底高度
14000ft AGL
V/I
VMC (VFR)
RVR
No RVR data
卓越風
4kt from 350°
ガスト
No gust
降水
報告なし
その他の天気
報告なし
少しの雲 @ 200ft AGL / 散在する雲 @ 3500ft AGL / 隙間のある雲 @ 14000ft AGL

RJFT 270000Z 35004KT 9999 FEW002 SCT035 BKN140 10/08 Q1018

RJFM/KMI  -  宮崎

観測日時
2021-01-27 00:00 (UTC) (77分前)
気温
12
露点
11
湿数
1
相対湿度
93.6%
QNH
1015hPa
推定現地気圧
1014.3hPa
推定海面気圧
1015.0hPa
体感温度
6.3
(無風時)
14.4
HI
11.7
気温前日比
-1
体感温度前日比
+1.6
HI前日比
-1.1
水平視程
6000m
鉛直視程
データなし
雲底高度
1100ft AGL
V/I
VMC (VFR)
RVR
No RVR data
卓越風
3kt from 260° (210° ~ 320°)
ガスト
No gust
降水
弱いしゅう雨性の雨
その他の天気
報告なし
少しの雲 @ 300ft AGL / 散在する雲 @ 500ft AGL / 隙間のある雲 @ 1100ft AGL

RJFM 270000Z 26003KT 210V320 6000 -SHRA FEW003 SCT005 BKN011 12/11 Q1015

RJFK/KOJ  -  鹿児島

観測日時
2021-01-27 00:00 (UTC) (77分前)
気温
10
露点
8
湿数
2
相対湿度
87.4%
QNH
1015hPa
推定現地気圧
982.7hPa
推定海面気圧
1015.3hPa
体感温度
-3.4
(無風時)
12.7
HI
9.3
気温前日比
-3
体感温度前日比
-8.8
HI前日比
-3.5
水平視程
>10000m
鉛直視程
データなし
雲底高度
5000ft AGL
V/I
VMC (VFR)
RVR
No RVR data
卓越風
16kt from 340°
ガスト
No gust
降水
報告なし
その他の天気
報告なし
少しの雲 @ 1500ft AGL / 隙間のある雲 @ 5000ft AGL

RJFK 270000Z 34016KT 9999 FEW015 BKN050 10/08 Q1015

株式会社マネーパートナーズ 【Manepa Card】

RJFG/TNE  -  種子島

観測日時
2021-01-27 00:00 (UTC) (77分前)
気温
13
露点
10
湿数
3
相対湿度
82%
QNH
1015hPa
推定現地気圧
987.2hPa
推定海面気圧
1015.1hPa
体感温度
1.6
(無風時)
15.1
HI
12.5
気温前日比
-2
体感温度前日比
-3.5
HI前日比
-2.3
水平視程
>10000m
鉛直視程
データなし
雲底高度
14000ft AGL
V/I
VMC (VFR)
RVR
No RVR data
卓越風
14kt from 310°
ガスト
No gust
降水
報告なし
その他の天気
報告なし
少しの雲 @ 1500ft AGL / 散在する雲 @ 2500ft AGL / 隙間のある雲 @ 14000ft AGL

RJFG 270000Z 31014KT 9999 FEW015 SCT025 BKN140 13/10 Q1015

RJKA/ASJ  -  奄美

観測日時
2021-01-27 00:00 (UTC) (77分前)
気温
17
露点
14
湿数
3
相対湿度
82.5%
QNH
1016hPa
推定現地気圧
1015.5hPa
推定海面気圧
1016.0hPa
体感温度
8.6
(無風時)
18.5
HI
16.9
気温前日比
-1
体感温度前日比
-2
HI前日比
-1.4
水平視程
>10000m
鉛直視程
データなし
雲底高度
2000ft AGL
V/I
VMC (VFR)
RVR
No RVR data
卓越風
9kt from 360°
ガスト
No gust
降水
報告なし
その他の天気
報告なし
少しの雲 @ 1500ft AGL / 隙間のある雲 @ 2000ft AGL / 隙間のある雲 @ 3000ft AGL

RJKA 270000Z 36009KT 9999 FEW015 BKN020 BKN030 17/14 Q1016

RJKI/KKX  -  喜界

観測日時
2021-01-27 00:00 (UTC) (77分前)
気温
17
露点
16
湿数
1
相対湿度
93.8%
QNH
1016hPa
推定現地気圧
1015.4hPa
推定海面気圧
1016.0hPa
体感温度
7.1
(無風時)
18.8
HI
17.2
気温前日比
-2
体感温度前日比
-4.9
HI前日比
-1.9
水平視程
>10000m
鉛直視程
データなし
雲底高度
2000ft AGL
V/I
VMC (VFR)
RVR
No RVR data
卓越風
14kt from 10°
ガスト
No gust
降水
報告なし
その他の天気
報告なし
少しの雲 @ 1300ft AGL / 散在する雲 @ 1700ft AGL / 隙間のある雲 @ 2000ft AGL

RJKI 270000Z AUTO 01014KT 9999 FEW013 SCT017 BKN020 17/16 Q1016

RORY/RNJ  -  与論

観測日時
2021-01-27 00:00 (UTC) (77分前)
気温
19
露点
15
湿数
4
相対湿度
77.6%
QNH
1017hPa
推定現地気圧
1015.3hPa
推定海面気圧
1017.0hPa
体感温度
10
(無風時)
20
HI
19
気温前日比
-1
体感温度前日比
-3.6
HI前日比
-1.1
水平視程
>10000m
鉛直視程
データなし
雲底高度
4400ft AGL
V/I
VMC (VFR)
RVR
No RVR data
卓越風
14kt from 320°
ガスト
No gust
降水
報告なし
その他の天気
報告なし
散在する雲 @ 2200ft AGL / 散在する雲 @ 2900ft AGL / 隙間のある雲 @ 4400ft AGL

RORY 270000Z AUTO 32014KT 9999 SCT022 SCT029 BKN044 19/15 Q1017

176.8msec